Airfield :
LOGIN :

Register | Disclaimer

   EN    FR    IT 

 










Legend :    VFR   Marginal VFR   IFR   Intensive IFR   Very Intensive IFR
Visi :
Ceiling :
>= 8 km
>= 3000ft
5 to 8 km
1000 to 3000 ft
1500m to 5 km
500 to 1000 ft
800 to 1500m
200 to 500 ft
< 800m
< 200 ft
Symbols :   Thunderstorms  Fog  Heavy snow  Heavy precipitations  Wind > 20 kt
SIGMETs :     Misc.  Thunderstorms  Icing  Turbulence  Mountain Waves  Volcanic Ashes






- Airport Elevation : 1585 ft
- IATA code : SIR


LSGS - Sion

CURRENT METAR :
  • 192250Z AUTO 07002KT CAVOK M00/M01 Q1016

EXPIRED METARs :
  • 192220Z AUTO VRB01KT CAVOK M00/M00 Q1016
  • 192150Z AUTO 08003KT CAVOK M00/M01 Q1016
  • 192120Z AUTO 00000KT CAVOK 00/M00 Q1016
  • 192050Z AUTO 00000KT CAVOK 01/01 Q1016
  • 192020Z AUTO 00000KT CAVOK 01/M00 Q1016
  • 191950Z AUTO 00000KT CAVOK 01/M00 Q1016

TAF TAF LSGS
Valid from the 19 at 15:00 until the 20 at 00:00 UTC


191425Z 1915/1924 VRB03KT 9999 FEW050 SCT080



MET'MAP, your aeronautical weather chart ! - Copyright ORBIFLY December 2007 - Disclaimer

ORBIFLY MET'MAP TEAM :

Programming & Development : Alexandra Zaïnal
Concept & Development : Baudouin d'Aumeries
Co-Development & Prog : Marc-Olivier Méhu
Technical & hardware support : Manuel Goepfert

Contact : metmap@orbifly.com




SOURCES & CREDITS :

   NOAA